createdAt,value
2018-11-29T00:00:00.380Z,17.76
2018-11-29T00:01:00.161Z,17.76
2018-11-29T00:02:00.294Z,17.76
2018-11-29T00:03:00.531Z,17.74
2018-11-29T00:04:00.264Z,17.74
2018-11-29T00:05:00.281Z,17.74
2018-11-29T00:06:00.214Z,17.74
2018-11-29T00:07:00.100Z,17.76
2018-11-29T00:08:00.156Z,17.77
2018-11-29T00:09:00.632Z,17.74
2018-11-29T00:10:01.035Z,17.76
2018-11-29T00:11:00.534Z,17.76
2018-11-29T00:12:00.063Z,17.74
2018-11-29T00:13:00.679Z,17.74
2018-11-29T00:14:00.106Z,17.77
2018-11-29T00:15:00.381Z,17.77
2018-11-29T00:16:00.295Z,17.76
2018-11-29T00:17:00.356Z,17.74
2018-11-29T00:18:00.241Z,17.74
2018-11-29T00:19:00.243Z,17.73
2018-11-29T00:20:00.389Z,17.74
2018-11-29T00:21:00.331Z,17.78
2018-11-29T00:22:00.162Z,17.73
2018-11-29T00:23:00.535Z,17.74
2018-11-29T00:24:00.142Z,17.76
2018-11-29T00:25:00.547Z,17.77
2018-11-29T00:26:00.148Z,17.71
2018-11-29T00:27:00.442Z,17.76
2018-11-29T00:28:00.452Z,17.76
2018-11-29T00:29:00.148Z,17.73
2018-11-29T00:30:00.649Z,17.73
2018-11-29T00:31:00.232Z,17.71
2018-11-29T00:32:00.204Z,17.77
2018-11-29T00:33:00.389Z,17.71
2018-11-29T00:34:00.493Z,17.73
2018-11-29T00:35:00.291Z,17.73
2018-11-29T00:36:00.059Z,17.71
2018-11-29T00:37:00.306Z,17.73
2018-11-29T00:38:00.174Z,17.73
2018-11-29T00:39:00.196Z,17.7
2018-11-29T00:40:00.209Z,17.71
2018-11-29T00:41:00.148Z,17.68
2018-11-29T00:42:01.068Z,17.71
2018-11-29T00:43:00.148Z,17.7
2018-11-29T00:44:00.379Z,17.7
2018-11-29T00:45:00.373Z,17.68
2018-11-29T00:46:00.256Z,17.7
2018-11-29T00:47:00.276Z,17.67
2018-11-29T00:48:00.255Z,17.67
2018-11-29T00:49:00.108Z,17.68
2018-11-29T00:50:00.211Z,17.67
2018-11-29T00:51:00.159Z,17.68
2018-11-29T00:52:00.192Z,17.67
2018-11-29T00:53:00.271Z,17.67
2018-11-29T00:54:00.429Z,17.7
2018-11-29T00:55:00.271Z,17.68
2018-11-29T00:56:00.643Z,17.67
2018-11-29T00:57:00.513Z,17.66
2018-11-29T00:58:00.496Z,17.68
2018-11-29T00:59:00.419Z,17.64
2018-11-29T01:00:00.353Z,17.66
2018-11-29T01:01:00.177Z,17.67
2018-11-29T01:02:00.819Z,17.67
2018-11-29T01:03:00.179Z,17.66
2018-11-29T01:04:00.274Z,17.7
2018-11-29T01:05:00.400Z,17.68
2018-11-29T01:06:00.224Z,17.7
2018-11-29T01:07:00.196Z,17.68
2018-11-29T01:08:00.109Z,17.68
2018-11-29T01:09:00.587Z,17.7
2018-11-29T01:10:00.450Z,17.67
2018-11-29T01:11:00.352Z,17.67
2018-11-29T01:12:00.338Z,17.66
2018-11-29T01:13:00.227Z,17.66
2018-11-29T01:14:00.356Z,17.66
2018-11-29T01:15:00.571Z,17.67
2018-11-29T01:16:00.302Z,17.64
2018-11-29T01:17:00.168Z,17.66
2018-11-29T01:18:00.811Z,17.64
2018-11-29T01:19:00.086Z,17.67
2018-11-29T01:20:00.511Z,17.64
2018-11-29T01:21:00.183Z,17.64
2018-11-29T01:22:00.227Z,17.63
2018-11-29T01:23:00.318Z,17.67
2018-11-29T01:24:00.216Z,17.64
2018-11-29T01:25:00.093Z,17.63
2018-11-29T01:26:00.337Z,17.67
2018-11-29T01:27:00.513Z,17.64
2018-11-29T01:28:00.362Z,17.66
2018-11-29T01:29:00.119Z,17.66
2018-11-29T01:30:00.689Z,17.66
2018-11-29T01:31:00.585Z,17.66
2018-11-29T01:32:00.197Z,17.64
2018-11-29T01:33:00.094Z,17.64
2018-11-29T01:34:00.190Z,17.66
2018-11-29T01:35:00.333Z,17.61
2018-11-29T01:36:00.060Z,17.64
2018-11-29T01:37:00.302Z,17.64
2018-11-29T01:38:00.514Z,17.63
2018-11-29T01:39:00.255Z,17.63
2018-11-29T01:40:00.477Z,17.63
2018-11-29T01:41:00.173Z,17.64
2018-11-29T01:42:00.472Z,17.61
2018-11-29T01:43:00.225Z,17.61
2018-11-29T01:44:00.296Z,17.64
2018-11-29T01:45:00.162Z,17.64
2018-11-29T01:46:00.514Z,17.63
2018-11-29T01:47:00.383Z,17.61
2018-11-29T01:48:00.479Z,17.63
2018-11-29T01:49:00.416Z,17.66
2018-11-29T01:50:00.111Z,17.63
2018-11-29T01:51:00.314Z,17.61
2018-11-29T01:52:00.444Z,17.6
2018-11-29T01:53:00.342Z,17.6
2018-11-29T01:54:00.223Z,17.59
2018-11-29T01:55:00.643Z,17.63
2018-11-29T01:56:00.353Z,17.63
2018-11-29T01:57:00.150Z,17.57
2018-11-29T01:58:00.406Z,17.6
2018-11-29T01:59:00.465Z,17.61
2018-11-29T02:00:00.615Z,17.6
2018-11-29T02:01:00.498Z,17.6
2018-11-29T02:02:00.175Z,17.59
2018-11-29T02:03:00.049Z,17.6
2018-11-29T02:04:00.230Z,17.6
2018-11-29T02:05:00.638Z,17.57
2018-11-29T02:06:00.313Z,17.57
2018-11-29T02:07:00.632Z,17.57
2018-11-29T02:08:00.185Z,17.56
2018-11-29T02:09:00.045Z,17.56
2018-11-29T02:10:00.121Z,17.57
2018-11-29T02:11:00.286Z,17.59
2018-11-29T02:12:00.947Z,17.6
2018-11-29T02:13:00.221Z,17.57
2018-11-29T02:14:00.265Z,17.59
2018-11-29T02:15:00.104Z,17.56
2018-11-29T02:16:00.268Z,17.57
2018-11-29T02:17:00.093Z,17.56
2018-11-29T02:18:00.311Z,17.56
2018-11-29T02:19:00.009Z,17.56
2018-11-29T02:20:00.083Z,17.54
2018-11-29T02:21:00.324Z,17.56
2018-11-29T02:22:00.137Z,17.54
2018-11-29T02:23:00.427Z,17.54
2018-11-29T02:24:00.001Z,17.56
2018-11-29T02:25:00.135Z,17.54
2018-11-29T02:26:00.009Z,17.56
2018-11-29T02:27:00.139Z,17.54
2018-11-29T02:28:00.194Z,17.52
2018-11-29T02:28:59.937Z,17.53
2018-11-29T02:30:00.195Z,17.53
2018-11-29T02:31:00.178Z,17.53
2018-11-29T02:32:00.327Z,17.54
2018-11-29T02:33:00.390Z,17.52
2018-11-29T02:34:00.140Z,17.53
2018-11-29T02:35:00.424Z,17.52
2018-11-29T02:36:00.091Z,17.5
2018-11-29T02:37:00.323Z,17.53
2018-11-29T02:38:00.126Z,17.52
2018-11-29T02:39:00.090Z,17.52
2018-11-29T02:40:00.510Z,17.49
2018-11-29T02:41:00.227Z,17.5
2018-11-29T02:42:00.168Z,17.5
2018-11-29T02:43:00.190Z,17.49
2018-11-29T02:44:00.764Z,17.5
2018-11-29T02:45:01.039Z,17.5
2018-11-29T02:46:00.536Z,17.52
2018-11-29T02:46:59.989Z,17.52
2018-11-29T02:48:00.333Z,17.5
2018-11-29T02:49:00.316Z,17.5
2018-11-29T02:50:00.287Z,17.5
2018-11-29T02:51:00.389Z,17.5
2018-11-29T02:52:00.452Z,17.5
2018-11-29T02:53:00.183Z,17.5
2018-11-29T02:54:00.520Z,17.52
2018-11-29T02:55:00.433Z,17.5
2018-11-29T02:56:00.287Z,17.53
2018-11-29T02:57:00.236Z,17.5
2018-11-29T02:58:00.177Z,17.5
2018-11-29T02:59:00.167Z,17.49
2018-11-29T03:00:00.441Z,17.49
2018-11-29T03:01:00.041Z,17.5
2018-11-29T03:02:00.204Z,17.5
2018-11-29T03:03:00.340Z,17.48
2018-11-29T03:04:00.149Z,17.48
2018-11-29T03:05:00.557Z,17.52
2018-11-29T03:06:00.149Z,17.49
2018-11-29T03:07:00.143Z,17.5
2018-11-29T03:08:00.023Z,17.49
2018-11-29T03:09:00.182Z,17.49
2018-11-29T03:10:00.410Z,17.5
2018-11-29T03:11:00.215Z,17.5
2018-11-29T03:12:00.343Z,17.48
2018-11-29T03:13:01.046Z,17.46
2018-11-29T03:14:00.171Z,17.46
2018-11-29T03:15:00.518Z,17.46
2018-11-29T03:16:00.153Z,17.49
2018-11-29T03:17:00.285Z,17.48
2018-11-29T03:18:00.207Z,17.48
2018-11-29T03:19:00.568Z,17.46
2018-11-29T03:20:00.226Z,17.5
2018-11-29T03:21:00.108Z,17.45
2018-11-29T03:22:00.016Z,17.48
2018-11-29T03:23:00.191Z,17.46
2018-11-29T03:24:00.471Z,17.48
2018-11-29T03:25:00.085Z,17.48
2018-11-29T03:26:00.516Z,17.45
2018-11-29T03:27:00.288Z,17.46
2018-11-29T03:28:00.404Z,17.46
2018-11-29T03:29:00.416Z,17.48
2018-11-29T03:30:00.176Z,17.48
2018-11-29T03:31:00.309Z,17.45
2018-11-29T03:32:00.473Z,17.46
2018-11-29T03:33:00.468Z,17.43
2018-11-29T03:34:00.346Z,17.46
2018-11-29T03:35:00.309Z,17.45
2018-11-29T03:36:01.169Z,17.48
2018-11-29T03:37:00.297Z,17.45
2018-11-29T03:38:00.067Z,17.45
2018-11-29T03:39:00.229Z,17.45
2018-11-29T03:40:00.649Z,17.46
2018-11-29T03:41:00.352Z,17.46
2018-11-29T03:42:00.295Z,17.45
2018-11-29T03:43:00.318Z,17.45
2018-11-29T03:44:00.465Z,17.45
2018-11-29T03:45:00.322Z,17.43
2018-11-29T03:46:00.525Z,17.45
2018-11-29T03:47:00.092Z,17.45
2018-11-29T03:48:00.382Z,17.43
2018-11-29T03:49:00.334Z,17.45
2018-11-29T03:50:00.554Z,17.45
2018-11-29T03:51:00.218Z,17.43
2018-11-29T03:52:00.098Z,17.45
2018-11-29T03:53:00.233Z,17.43
2018-11-29T03:54:00.330Z,17.42
2018-11-29T03:55:00.140Z,17.42
2018-11-29T03:56:00.197Z,17.4
2018-11-29T03:57:00.059Z,17.42
2018-11-29T03:58:00.210Z,17.4
2018-11-29T03:59:00.131Z,17.4
2018-11-29T04:00:00.281Z,17.4
2018-11-29T04:01:00.146Z,17.42
2018-11-29T04:02:00.573Z,17.4
2018-11-29T04:03:00.504Z,17.43
2018-11-29T04:04:00.233Z,17.39
2018-11-29T04:05:00.222Z,17.42
2018-11-29T04:06:00.077Z,17.43
2018-11-29T04:07:00.139Z,17.4
2018-11-29T04:08:00.131Z,17.39
2018-11-29T04:09:00.143Z,17.4
2018-11-29T04:10:00.330Z,17.39
2018-11-29T04:11:00.070Z,17.42
2018-11-29T04:12:00.343Z,17.39
2018-11-29T04:13:00.508Z,17.39
2018-11-29T04:14:00.128Z,17.39
2018-11-29T04:14:59.943Z,17.39
2018-11-29T04:16:00.553Z,17.39
2018-11-29T04:17:00.267Z,17.4
2018-11-29T04:18:00.218Z,17.39
2018-11-29T04:19:00.304Z,17.4
2018-11-29T04:20:00.047Z,17.42
2018-11-29T04:21:00.207Z,17.39
2018-11-29T04:22:00.290Z,17.39
2018-11-29T04:23:00.175Z,17.39
2018-11-29T04:24:00.917Z,17.38
2018-11-29T04:25:00.276Z,17.36
2018-11-29T04:26:00.200Z,17.39
2018-11-29T04:27:00.406Z,17.39
2018-11-29T04:28:00.537Z,17.38
2018-11-29T04:29:00.029Z,17.39
2018-11-29T04:30:00.169Z,17.36
2018-11-29T04:31:00.511Z,17.38
2018-11-29T04:32:00.352Z,17.38
2018-11-29T04:33:00.216Z,17.39
2018-11-29T04:34:00.193Z,17.38
2018-11-29T04:35:00.301Z,17.36
2018-11-29T04:36:00.060Z,17.39
2018-11-29T04:37:00.519Z,17.39
2018-11-29T04:38:00.096Z,17.39
2018-11-29T04:39:00.247Z,17.38
2018-11-29T04:40:00.269Z,17.39
2018-11-29T04:41:00.576Z,17.38
2018-11-29T04:42:00.380Z,17.36
2018-11-29T04:43:00.185Z,17.35
2018-11-29T04:44:00.338Z,17.35
2018-11-29T04:45:00.092Z,17.35
2018-11-29T04:46:00.347Z,17.35
2018-11-29T04:47:00.126Z,17.35
2018-11-29T04:48:00.171Z,17.35
2018-11-29T04:49:00.145Z,17.35
2018-11-29T04:50:00.477Z,17.33
2018-11-29T04:50:59.956Z,17.36
2018-11-29T04:52:00.598Z,17.36
2018-11-29T04:53:00.014Z,17.39
2018-11-29T04:54:00.308Z,17.39
2018-11-29T04:55:00.195Z,17.4
2018-11-29T04:56:00.074Z,17.42
2018-11-29T04:57:00.177Z,17.46
2018-11-29T04:57:59.997Z,17.46
2018-11-29T04:59:00.184Z,17.45
2018-11-29T05:00:00.244Z,17.49
2018-11-29T05:01:00.228Z,17.52
2018-11-29T05:02:00.211Z,17.52
2018-11-29T05:03:00.079Z,17.53
2018-11-29T05:04:00.248Z,17.53
2018-11-29T05:05:00.081Z,17.54
2018-11-29T05:06:00.552Z,17.59
2018-11-29T05:06:59.944Z,17.59
2018-11-29T05:08:00.493Z,17.59
2018-11-29T05:09:00.187Z,17.59
2018-11-29T05:10:00.225Z,17.61
2018-11-29T05:11:00.168Z,17.63
2018-11-29T05:11:59.961Z,17.66
2018-11-29T05:13:00.365Z,17.68
2018-11-29T05:14:00.155Z,17.68
2018-11-29T05:15:00.112Z,17.71
2018-11-29T05:16:00.377Z,17.68
2018-11-29T05:17:00.405Z,17.73
2018-11-29T05:18:00.136Z,17.76
2018-11-29T05:19:00.095Z,17.77
2018-11-29T05:20:00.892Z,17.8
2018-11-29T05:21:00.305Z,17.8
2018-11-29T05:22:00.063Z,17.82
2018-11-29T05:23:00.643Z,17.82
2018-11-29T05:24:00.131Z,17.85
2018-11-29T05:25:00.149Z,17.84
2018-11-29T05:26:00.104Z,17.89
2018-11-29T05:27:00.193Z,17.89
2018-11-29T05:27:59.939Z,17.89
2018-11-29T05:29:00.179Z,17.91
2018-11-29T05:30:00.224Z,17.94
2018-11-29T05:31:00.181Z,17.95
2018-11-29T05:32:00.122Z,17.97
2018-11-29T05:32:59.965Z,17.97
2018-11-29T05:34:00.123Z,17.97
2018-11-29T05:34:59.973Z,17.97
2018-11-29T05:36:00.074Z,18
2018-11-29T05:37:00.439Z,18.02
2018-11-29T05:38:00.362Z,18.01
2018-11-29T05:39:00.195Z,18.04
2018-11-29T05:40:00.244Z,18.04
2018-11-29T05:41:00.162Z,18.08
2018-11-29T05:42:00.137Z,18.08
2018-11-29T05:43:00.037Z,18.07
2018-11-29T05:43:59.873Z,18.08
2018-11-29T05:44:59.985Z,18.09
2018-11-29T05:46:00.054Z,18.09
2018-11-29T05:46:59.989Z,18.09
2018-11-29T05:48:00.273Z,18.09
2018-11-29T05:49:00.103Z,18.12
2018-11-29T05:50:00.071Z,18.13
2018-11-29T05:51:00.716Z,18.12
2018-11-29T05:52:00.041Z,18.15
2018-11-29T05:53:00.050Z,18.12
2018-11-29T05:54:00.083Z,18.13
2018-11-29T05:55:00.371Z,18.15
2018-11-29T05:56:00.290Z,18.13
2018-11-29T05:57:00.177Z,18.15
2018-11-29T05:58:00.352Z,18.16
2018-11-29T05:59:00.187Z,18.18
2018-11-29T06:00:00.224Z,18.19
2018-11-29T06:01:00.956Z,18.18
2018-11-29T06:02:00.164Z,18.18
2018-11-29T06:03:00.377Z,18.16
2018-11-29T06:04:00.073Z,18.19
2018-11-29T06:04:59.946Z,18.16
2018-11-29T06:06:00.385Z,18.16
2018-11-29T06:07:00.279Z,18.19
2018-11-29T06:08:00.108Z,18.18
2018-11-29T06:09:00.350Z,18.16
2018-11-29T06:10:00.059Z,18.18
2018-11-29T06:11:00.010Z,18.18
2018-11-29T06:11:59.893Z,18.19
2018-11-29T06:13:00.226Z,18.19
2018-11-29T06:13:59.946Z,18.18
2018-11-29T06:15:00.088Z,18.18
2018-11-29T06:16:00.145Z,18.16
2018-11-29T06:17:00.418Z,18.18
2018-11-29T06:18:00.514Z,18.18
2018-11-29T06:19:00.216Z,18.19
2018-11-29T06:20:00.322Z,18.18
2018-11-29T06:20:59.974Z,18.19
2018-11-29T06:22:00.924Z,18.19
2018-11-29T06:23:00.470Z,18.18
2018-11-29T06:24:00.077Z,18.18
2018-11-29T06:25:00.177Z,18.18
2018-11-29T06:26:00.068Z,18.18
2018-11-29T06:27:00.151Z,18.18
2018-11-29T06:27:59.977Z,18.15
2018-11-29T06:29:00.327Z,18.19
2018-11-29T06:30:00.205Z,18.16
2018-11-29T06:31:00.508Z,18.16
2018-11-29T06:32:00.247Z,18.16
2018-11-29T06:32:59.894Z,18.15
2018-11-29T06:34:00.115Z,18.16
2018-11-29T06:34:59.986Z,18.15
2018-11-29T06:36:02.347Z,18.13
2018-11-29T06:37:00.323Z,18.12
2018-11-29T06:38:00.030Z,18.13
2018-11-29T06:39:00.442Z,18.11
2018-11-29T06:40:00.077Z,18.09
2018-11-29T06:41:00.175Z,18.12
2018-11-29T06:42:00.059Z,18.11
2018-11-29T06:43:00.182Z,18.11
2018-11-29T06:43:59.880Z,18.11
2018-11-29T06:45:00.083Z,18.09
2018-11-29T06:46:00.606Z,18.08
2018-11-29T06:47:00.293Z,18.08
2018-11-29T06:48:00.506Z,18.09
2018-11-29T06:48:59.938Z,18.09
2018-11-29T06:50:00.211Z,18.11
2018-11-29T06:51:00.004Z,18.07
2018-11-29T06:52:00.415Z,18.09
2018-11-29T06:52:59.962Z,18.08
2018-11-29T06:53:59.974Z,18.08
2018-11-29T06:55:00.493Z,18.08
2018-11-29T06:56:00.078Z,18.09
2018-11-29T06:57:00.161Z,18.12
2018-11-29T06:58:00.570Z,18.11
2018-11-29T06:59:00.323Z,18.11
2018-11-29T06:59:59.930Z,18.09
2018-11-29T07:01:00.045Z,18.13
2018-11-29T07:02:00.121Z,18.13
2018-11-29T07:03:00.429Z,18.15
2018-11-29T07:04:00.243Z,18.13
2018-11-29T07:05:00.076Z,18.15
2018-11-29T07:06:00.225Z,18.13
2018-11-29T07:07:00.118Z,18.15
2018-11-29T07:08:00.118Z,18.15
2018-11-29T07:09:00.187Z,18.13
2018-11-29T07:10:00.022Z,18.15
2018-11-29T07:10:59.922Z,18.15
2018-11-29T07:11:59.894Z,18.13
2018-11-29T07:13:00.065Z,18.15
2018-11-29T07:13:59.886Z,18.15
2018-11-29T07:15:00.014Z,18.13
2018-11-29T07:16:00.103Z,18.12
2018-11-29T07:16:59.970Z,18.15
2018-11-29T07:18:00.023Z,18.13
2018-11-29T07:18:59.908Z,18.13
2018-11-29T07:19:59.994Z,18.13
2018-11-29T07:21:00.087Z,18.15
2018-11-29T07:21:59.972Z,18.13
2018-11-29T07:23:00.137Z,18.12
2018-11-29T07:23:59.976Z,18.13
2018-11-29T07:25:00.024Z,18.15
2018-11-29T07:26:00.169Z,18.13
2018-11-29T07:26:59.944Z,18.15
2018-11-29T07:28:00.399Z,18.13
2018-11-29T07:28:59.964Z,18.15
2018-11-29T07:30:00.099Z,18.13
2018-11-29T07:31:00.027Z,18.15
2018-11-29T07:32:00.175Z,18.15
2018-11-29T07:33:00.246Z,18.13
2018-11-29T07:34:00.053Z,18.12
2018-11-29T07:35:00.109Z,18.16
2018-11-29T07:36:00.062Z,18.15
2018-11-29T07:37:00.455Z,18.13
2018-11-29T07:38:00.444Z,18.12
2018-11-29T07:39:00.372Z,18.12
2018-11-29T07:39:59.975Z,18.13
2018-11-29T07:41:00.059Z,18.13
2018-11-29T07:42:00.189Z,18.13
2018-11-29T07:43:00.213Z,18.16
2018-11-29T07:44:00.198Z,18.15
2018-11-29T07:45:00.036Z,18.15
2018-11-29T07:46:00.132Z,18.13
2018-11-29T07:47:00.319Z,18.13
2018-11-29T07:48:00.149Z,18.15
2018-11-29T07:49:00.182Z,18.13
2018-11-29T07:50:00.071Z,18.16
2018-11-29T07:51:00.142Z,18.13
2018-11-29T07:52:00.900Z,18.13
2018-11-29T07:53:00.067Z,18.16
2018-11-29T07:54:00.176Z,18.13
2018-11-29T07:55:00.084Z,18.13
2018-11-29T07:55:59.975Z,18.13
2018-11-29T07:56:59.956Z,18.13
2018-11-29T07:58:00.079Z,18.12
2018-11-29T07:59:00.317Z,18.12
2018-11-29T07:59:59.806Z,18.12
2018-11-29T08:01:00.239Z,18.16
2018-11-29T08:02:00.438Z,18.13
2018-11-29T08:03:00.293Z,18.15
2018-11-29T08:04:00.043Z,18.13
2018-11-29T08:05:00.400Z,18.15
2018-11-29T08:06:00.848Z,18.12
2018-11-29T08:07:00.060Z,18.15
2018-11-29T08:08:00.226Z,18.15
2018-11-29T08:08:59.909Z,18.12
2018-11-29T08:10:00.038Z,18.13
2018-11-29T08:11:00.006Z,18.12
2018-11-29T08:11:59.923Z,18.13
2018-11-29T08:12:59.967Z,18.13
2018-11-29T08:14:00.403Z,18.13
2018-11-29T08:15:00.113Z,18.13
2018-11-29T08:16:00.324Z,18.12
2018-11-29T08:16:59.945Z,18.08
2018-11-29T08:18:00.150Z,18.12
2018-11-29T08:19:00.238Z,18.13
2018-11-29T08:20:00.346Z,18.12
2018-11-29T08:20:59.982Z,18.11
2018-11-29T08:22:00.096Z,18.12
2018-11-29T08:23:00.349Z,18.12
2018-11-29T08:24:00.311Z,18.15
2018-11-29T08:24:59.933Z,18.12
2018-11-29T08:25:59.968Z,18.12
2018-11-29T08:27:00.313Z,18.13
2018-11-29T08:27:59.909Z,18.15
2018-11-29T08:29:00.036Z,18.12
2018-11-29T08:30:00.146Z,18.12
2018-11-29T08:31:00.209Z,18.11
2018-11-29T08:32:00.146Z,18.13
2018-11-29T08:33:00.056Z,18.13
2018-11-29T08:34:00.067Z,18.11
2018-11-29T08:35:00.169Z,18.12
2018-11-29T08:35:59.934Z,18.12
2018-11-29T08:37:00.126Z,18.13
2018-11-29T08:38:00.184Z,18.12
2018-11-29T08:39:00.123Z,18.15
2018-11-29T08:39:59.959Z,18.11
2018-11-29T08:41:00.932Z,18.13
2018-11-29T08:41:59.968Z,18.13
2018-11-29T08:43:00.082Z,18.12
2018-11-29T08:43:59.906Z,18.12
2018-11-29T08:45:00.035Z,18.15
2018-11-29T08:46:00.171Z,18.15
2018-11-29T08:46:59.901Z,18.13
2018-11-29T08:48:00.351Z,18.12
2018-11-29T08:48:59.924Z,18.15
2018-11-29T08:50:00.083Z,18.15
2018-11-29T08:50:59.853Z,18.12
2018-11-29T08:51:59.961Z,18.13
2018-11-29T08:53:00.192Z,18.12
2018-11-29T08:53:59.832Z,18.15
2018-11-29T08:55:00.125Z,18.11
2018-11-29T08:55:59.945Z,18.13
2018-11-29T08:56:59.913Z,18.13
2018-11-29T08:57:59.931Z,18.13
2018-11-29T08:59:00.075Z,18.11
2018-11-29T09:00:00.008Z,18.12
2018-11-29T09:01:00.006Z,18.12
2018-11-29T09:02:00.089Z,18.12
2018-11-29T09:03:02.641Z,18.11
2018-11-29T09:04:00.065Z,18.15
2018-11-29T09:05:00.156Z,18.13
2018-11-29T09:06:00.176Z,18.15
2018-11-29T09:07:00.139Z,18.13
2018-11-29T09:08:00.283Z,18.13
2018-11-29T09:09:00.134Z,18.13
2018-11-29T09:09:59.960Z,18.13
2018-11-29T09:11:00.086Z,18.13
2018-11-29T09:11:59.784Z,18.15
2018-11-29T09:13:00.121Z,18.15
2018-11-29T09:14:00.203Z,18.15
2018-11-29T09:15:00.354Z,18.13
2018-11-29T09:16:00.172Z,18.15
2018-11-29T09:17:00.224Z,18.16
2018-11-29T09:18:00.034Z,18.13
2018-11-29T09:19:00.007Z,18.13
2018-11-29T09:20:00.279Z,18.15
2018-11-29T09:20:59.822Z,18.13
2018-11-29T09:21:59.941Z,18.12
2018-11-29T09:23:00.221Z,18.13
2018-11-29T09:24:00.228Z,18.13
2018-11-29T09:25:00.045Z,18.15
2018-11-29T09:25:59.977Z,18.16
2018-11-29T09:26:59.963Z,18.15
2018-11-29T09:28:00.026Z,18.15
2018-11-29T09:29:00.143Z,18.15
2018-11-29T09:30:00.063Z,18.16
2018-11-29T09:31:00.421Z,18.13
2018-11-29T09:32:00.136Z,18.13
2018-11-29T09:32:59.932Z,18.16
2018-11-29T09:34:00.089Z,18.18
2018-11-29T09:34:59.994Z,18.16
2018-11-29T09:36:00.105Z,18.16
2018-11-29T09:36:59.779Z,18.16
2018-11-29T09:37:59.926Z,18.16
2018-11-29T09:39:00.137Z,18.15
2018-11-29T09:40:00.100Z,18.15
2018-11-29T09:41:00.331Z,18.18
2018-11-29T09:42:00.217Z,18.16
2018-11-29T09:43:00.146Z,18.15
2018-11-29T09:43:59.948Z,18.18
2018-11-29T09:45:00.233Z,18.16
2018-11-29T09:46:00.498Z,18.16
2018-11-29T09:47:00.490Z,18.18
2018-11-29T09:48:00.135Z,18.21
2018-11-29T09:49:00.353Z,18.18
2018-11-29T09:50:00.127Z,18.16
2018-11-29T09:50:59.769Z,18.16
2018-11-29T09:52:00.022Z,18.16
2018-11-29T09:52:59.996Z,18.15
2018-11-29T09:54:00.399Z,18.16
2018-11-29T09:55:00.345Z,18.16
2018-11-29T09:55:59.915Z,18.18
2018-11-29T09:57:00.000Z,18.18
2018-11-29T09:57:59.816Z,18.18
2018-11-29T09:59:00.049Z,18.16
2018-11-29T10:00:00.148Z,18.18
2018-11-29T10:00:59.983Z,18.21
2018-11-29T10:02:00.164Z,18.19
2018-11-29T10:03:00.352Z,18.18
2018-11-29T10:04:00.103Z,18.18
2018-11-29T10:04:59.780Z,18.18
2018-11-29T10:06:00.082Z,18.18
2018-11-29T10:06:59.820Z,18.16
2018-11-29T10:08:01.689Z,18.16
2018-11-29T10:09:00.026Z,18.16
2018-11-29T10:09:59.927Z,18.18
2018-11-29T10:11:00.069Z,18.15
2018-11-29T10:12:00.163Z,18.18
2018-11-29T10:13:00.013Z,18.21
2018-11-29T10:14:00.993Z,18.19
2018-11-29T10:14:59.941Z,18.19
2018-11-29T10:16:00.353Z,18.22
2018-11-29T10:16:59.866Z,18.21
2018-11-29T10:18:00.045Z,18.22
2018-11-29T10:19:00.037Z,18.23
2018-11-29T10:19:59.973Z,18.22
2018-11-29T10:21:00.350Z,18.26
2018-11-29T10:21:59.827Z,18.22
2018-11-29T10:23:00.291Z,18.23
2018-11-29T10:23:59.924Z,18.25
2018-11-29T10:24:59.947Z,18.23
2018-11-29T10:25:59.918Z,18.25
2018-11-29T10:27:00.080Z,18.28
2018-11-29T10:28:00.416Z,18.28
2018-11-29T10:29:00.021Z,18.29
2018-11-29T10:30:00.066Z,18.3
2018-11-29T10:30:59.924Z,18.29
2018-11-29T10:32:00.274Z,18.29
2018-11-29T10:33:00.068Z,18.29
2018-11-29T10:34:00.065Z,18.28
2018-11-29T10:34:59.920Z,18.29
2018-11-29T10:35:59.770Z,18.29
2018-11-29T10:37:00.006Z,18.28
2018-11-29T10:37:59.906Z,18.28
2018-11-29T10:39:00.067Z,18.29
2018-11-29T10:40:00.119Z,18.28
2018-11-29T10:41:00.017Z,18.28
2018-11-29T10:42:00.008Z,18.29
2018-11-29T10:43:00.088Z,18.29
2018-11-29T10:44:00.031Z,18.3
2018-11-29T10:45:00.321Z,18.29
2018-11-29T10:46:00.158Z,18.29
2018-11-29T10:46:59.836Z,18.29
2018-11-29T10:48:00.049Z,18.28
2018-11-29T10:48:59.862Z,18.28
2018-11-29T10:50:00.094Z,18.28
2018-11-29T10:51:00.032Z,18.29
2018-11-29T10:51:59.918Z,18.28
2018-11-29T10:53:00.262Z,18.29
2018-11-29T10:54:00.509Z,18.28
2018-11-29T10:55:00.061Z,18.29
2018-11-29T10:56:00.210Z,18.29
2018-11-29T10:57:00.413Z,18.26
2018-11-29T10:58:00.109Z,18.26
2018-11-29T10:58:59.858Z,18.26
2018-11-29T11:00:00.574Z,18.28
2018-11-29T11:01:00.239Z,18.26
2018-11-29T11:01:59.733Z,18.28
2018-11-29T11:02:59.906Z,18.26
2018-11-29T11:04:00.009Z,18.28
2018-11-29T11:05:00.003Z,18.26
2018-11-29T11:06:00.278Z,18.28
2018-11-29T11:07:00.366Z,18.25
2018-11-29T11:08:00.226Z,18.25
2018-11-29T11:09:00.089Z,18.26
2018-11-29T11:10:00.259Z,18.23
2018-11-29T11:11:00.002Z,18.25
2018-11-29T11:12:00.084Z,18.23
2018-11-29T11:12:59.775Z,18.23
2018-11-29T11:14:00.061Z,18.25
2018-11-29T11:15:00.050Z,18.25
2018-11-29T11:16:00.509Z,18.25
2018-11-29T11:17:00.088Z,18.23
2018-11-29T11:17:59.815Z,18.23
2018-11-29T11:18:59.952Z,18.25
2018-11-29T11:20:00.002Z,18.26
2018-11-29T11:20:59.927Z,18.25
2018-11-29T11:22:00.158Z,18.25
2018-11-29T11:23:00.223Z,18.26
2018-11-29T11:23:59.901Z,18.25
2018-11-29T11:25:00.155Z,18.26
2018-11-29T11:26:00.506Z,18.26
2018-11-29T11:27:00.031Z,18.28
2018-11-29T11:27:59.830Z,18.29
2018-11-29T11:29:00.003Z,18.29
2018-11-29T11:29:59.844Z,18.28
2018-11-29T11:31:00.379Z,18.28
2018-11-29T11:32:00.715Z,18.26
2018-11-29T11:33:00.116Z,18.29
2018-11-29T11:34:00.524Z,18.28
2018-11-29T11:34:59.853Z,18.26
2018-11-29T11:36:00.276Z,18.28
2018-11-29T11:37:00.016Z,18.29
2018-11-29T11:37:59.922Z,18.3
2018-11-29T11:38:59.809Z,18.28
2018-11-29T11:40:00.269Z,18.28
2018-11-29T11:40:59.846Z,18.28
2018-11-29T11:41:59.873Z,18.29
2018-11-29T11:43:00.004Z,18.3
2018-11-29T11:43:59.883Z,18.28
2018-11-29T11:44:59.972Z,18.26
2018-11-29T11:46:00.449Z,18.28
2018-11-29T11:47:00.108Z,18.28
2018-11-29T11:48:03.959Z,18.29
2018-11-29T11:49:00.691Z,18.28
2018-11-29T11:49:59.768Z,18.3
2018-11-29T11:51:00.165Z,18.29
2018-11-29T11:51:59.998Z,18.3
2018-11-29T11:52:59.972Z,18.3
2018-11-29T11:54:00.359Z,18.29
2018-11-29T11:55:00.189Z,18.3
2018-11-29T11:56:00.084Z,18.28
2018-11-29T11:56:59.806Z,18.28
2018-11-29T11:57:59.836Z,18.26
2018-11-29T11:58:59.714Z,18.28
2018-11-29T11:59:59.854Z,18.28
2018-11-29T12:01:00.267Z,18.28
2018-11-29T12:02:00.115Z,18.28
2018-11-29T12:02:59.976Z,18.28
2018-11-29T12:04:00.222Z,18.26
2018-11-29T12:05:00.008Z,18.26
2018-11-29T12:06:00.082Z,18.25
2018-11-29T12:07:00.363Z,18.28
2018-11-29T12:08:00.085Z,18.28
2018-11-29T12:09:00.278Z,18.26
2018-11-29T12:10:00.406Z,18.28
2018-11-29T12:10:59.940Z,18.28
2018-11-29T12:11:59.975Z,18.28
2018-11-29T12:12:59.840Z,18.29
2018-11-29T12:13:59.965Z,18.28
2018-11-29T12:15:00.060Z,18.28
2018-11-29T12:15:59.924Z,18.29
2018-11-29T12:17:00.023Z,18.28
2018-11-29T12:17:59.760Z,18.28
2018-11-29T12:19:02.852Z,18.29
2018-11-29T12:20:00.011Z,18.28
2018-11-29T12:21:00.391Z,18.29
2018-11-29T12:21:59.793Z,18.28
2018-11-29T12:23:00.053Z,18.28
2018-11-29T12:24:00.099Z,18.3
2018-11-29T12:24:59.926Z,18.26
2018-11-29T12:26:00.026Z,18.29
2018-11-29T12:26:59.849Z,18.28
2018-11-29T12:28:00.090Z,18.28
2018-11-29T12:28:59.860Z,18.29
2018-11-29T12:29:59.955Z,18.26
2018-11-29T12:31:00.059Z,18.28
2018-11-29T12:31:59.946Z,18.26
2018-11-29T12:32:59.979Z,18.28
2018-11-29T12:33:59.930Z,18.29
2018-11-29T12:35:00.218Z,18.29
2018-11-29T12:35:59.770Z,18.28
2018-11-29T12:36:59.948Z,18.26
2018-11-29T12:38:00.035Z,18.29
2018-11-29T12:39:00.179Z,18.26
2018-11-29T12:40:00.393Z,18.26
2018-11-29T12:41:00.007Z,18.26
2018-11-29T12:41:59.948Z,18.28
2018-11-29T12:42:59.763Z,18.28
2018-11-29T12:44:00.315Z,18.28
2018-11-29T12:45:00.139Z,18.26
2018-11-29T12:46:00.408Z,18.28
2018-11-29T12:47:00.214Z,18.26
2018-11-29T12:47:59.987Z,18.29
2018-11-29T12:48:59.799Z,18.28
2018-11-29T12:49:59.846Z,18.28
2018-11-29T12:51:00.052Z,18.26
2018-11-29T12:52:00.148Z,18.26
2018-11-29T12:53:00.394Z,18.25
2018-11-29T12:54:00.248Z,18.28